FSnordic.net
Home Help Rules Login Register
Welcome, Guest. Please login or register.
25.07.17, 22:35

Login with username, password and session length
+  FSnordic.net Forums
|-+  Finnish Discussion / Lentosimulaattorit
| |-+  Verkkolentäminen (Moderators: Juha Kalli, Mikko Maliniemi, Janne Sinkkonen, Ilkka Portti, Mikko J Köykkä)
| | |-+  VFR Saturday lauantaina 9. tammikuuta kello 12-14
:  

« previous thread next thread »
Pages: [1] Reply Print
Author Topic: VFR Saturday lauantaina 9. tammikuuta kello 12-14  (Read 913 times)
Arttu Vattulainen
Offline Offline

Posts: 1340
Date Registered: 09.09.05

VFR Saturday lauantaina 9. tammikuuta kello 12-14
« on: 05.01.10, 16:07 »



Lauantaina 9. tammikuuta kello 12-14, IVAO Finland ja MIK järjestävät virtuaalisella Malmin lentoasemalla jälleen VFR Saturday -tapahtuman. Samaan aikaan järjestetään myös VFR1 -koulutustapahtuma.

Niin aloittelijat kuin kokeneemmatkin lentäjät, tervetuloa lentämään virtuaalisen Malmin ruuhkaiselle lähialueelle!

Lisätietoja: http://blog.mik.fi/vfr-saturday/

Antti Toivanen
Offline Offline

Posts: 976
Date Registered: 25.02.02

Re: VFR Saturday lauantaina 9. tammikuuta kello 12-14
« Reply #1 on: 09.01.10, 10:09 »

Torni on auki ja Malmilla on jämäkkä pakkassää; EFHF 090950Z 31001KT CAVOK M17/M18 Q1034=

Lentämään!

Mikael Leinonen
Offline Offline

Posts: 3822
Date Registered: 19.06.07

Re: VFR Saturday lauantaina 9. tammikuuta kello 12-14
« Reply #2 on: 09.01.10, 10:15 »

Torni on auki ja Malmilla on jämäkkä pakkassää; EFHF 090950Z 31001KT CAVOK M17/M18 Q1034=

Lentämään!

Voi kun pääsiskin...joutuu homehtumaan töissä  Sad
Tuomas Kuosmanen
Offline Offline

Posts: 10450
Date Registered: 18.06.02

WWW
Re: VFR Saturday lauantaina 9. tammikuuta kello 12-14
« Reply #3 on: 09.01.10, 21:42 »

Olipas asiaa kurvata perusosalle 18 vuorolla kolme  Cool

Pistin pienen pätkän MIK:in youtube-kanavalle aiheesta: http://www.youtube.com/user/MalmiAviationClub - tulee tuonne kunhan kone ehtii puskea sen tuubiin...

Kiitoksia, oli taas kerran kivaa Smiley

- T

Antti Toivanen
Offline Offline

Posts: 976
Date Registered: 25.02.02

Re: VFR Saturday lauantaina 9. tammikuuta kello 12-14
« Reply #4 on: 10.01.10, 11:12 »


Tuomas kierroksessa, vuorolla 3.

Kiitokset lentäjille, VFR Saturdayn liikennemäärä yllätti todella positiivisesti! Otin muutaman screenshotin tutkaruudustakin, mutta ne jäivät tietenkin MIK:n atc-koneelle... Täytyy laittaa webiin myöhemmin. Laittakaahan muutkin kuvia vaikka tähän ketjuun.

Ensi kerralla jatketaan taas, tulkaahan yhtä sankoin joukoin mukaan lentämään Smiley

Antti


Pages: [1] Reply Print 
« previous thread next thread »
Jump to:  

1